Facebook Twitter

Wetterstation Reutte

Messwerte
  Temperatur Wetter Niederschlag Luftdruck Wind
Mi, 01:00 Uhr 21° - 0 mm 1022.7 hPa 4 km/h O
Mi, 00:00 Uhr 23° - 0 mm 1021.4 hPa 7 km/h SO
Di, 23:00 Uhr 23° - 0 mm 1020.9 hPa 4 km/h S
Di, 22:00 Uhr 21° - 0 mm 1021.3 hPa 4 km/h SW
Di, 21:00 Uhr 27° - 0 mm 1018.8 hPa 7 km/h O
Di, 20:00 Uhr 28° - 0 mm 1018.1 hPa 11 km/h N
Di, 19:00 Uhr 30° - 0 mm 1017.5 hPa 18 km/h N
Di, 18:00 Uhr 30° - 0 mm 1017.2 hPa 18 km/h N
Di, 17:00 Uhr 30° - 0 mm 1017 hPa 22 km/h N
Di, 16:00 Uhr 30° - 0 mm 1017 hPa 22 km/h N
Di, 15:00 Uhr 30° - 0 mm 1017.1 hPa 22 km/h N
Di, 14:00 Uhr 30° - 0 mm 1016.8 hPa 18 km/h N
Di, 13:00 Uhr 29° - 0 mm 1017.1 hPa 18 km/h N
Di, 12:00 Uhr 28° - 0 mm 1017.1 hPa 14 km/h N
Di, 11:00 Uhr 27° - 0 mm 1017.5 hPa 4 km/h N
Di, 09:00 Uhr 21° - 0 mm 1019.2 hPa 4 km/h SW
Di, 08:00 Uhr 20° - 0 mm 1019.7 hPa 4 km/h S
Di, 07:00 Uhr 17° - 0 mm 1020.7 hPa 4 km/h NW
Di, 06:00 Uhr 13° - 0 mm 1021.7 hPa 4 km/h SW
Di, 05:00 Uhr 16° - 0 mm 1020.2 hPa 4 km/h S

Alle Zeitangaben MESZ